Time;durP1;ratioP1;P1;durP2;ratioP2;P2;SDS_P1;SDS_P2;PMS_P1;PMS_P2;Temp;Humidity;BMP_temperature;BMP_pressure;BME280_temperature;BME280_humidity;BME280_pressure;Samples;Min_cycle;Max_cycle;Signal;HPM_P1;HPM_P2
2021/09/02 00:01:24;;;;;;;8.97;6.90;;;;;;;;;;5007165;28;20774;-72
2021/09/02 00:03:53;;;;;;;9.20;6.60;;;;;;;;;;5005149;28;20219;-72
2021/09/02 00:06:19;;;;;;;8.03;5.30;;;;;;;;;;5006401;28;20261;-73
2021/09/02 00:08:45;;;;;;;8.40;6.27;;;;;;;;;;5009648;28;20308;-72
2021/09/02 00:11:12;;;;;;;8.70;6.40;;;;;;;;;;5007618;28;20218;-72
2021/09/02 00:13:38;;;;;;;9.33;6.53;;;;;;;;;;5008148;28;20223;-72
2021/09/02 00:16:05;;;;;;;9.77;6.57;;;;;;;;;;5006378;28;20662;-73
2021/09/02 00:18:31;;;;;;;8.33;7.40;;;;;;;;;;5005189;28;20223;-72
2021/09/02 00:20:59;;;;;;;10.10;6.57;;;;;;;;;;5008078;28;20215;-72
2021/09/02 00:23:26;;;;;;;8.53;6.83;;;;;;;;;;5009725;28;20266;-72
2021/09/02 00:25:52;;;;;;;9.53;7.20;;;;;;;;;;5004540;28;20230;-72
2021/09/02 00:28:19;;;;;;;7.87;7.07;;;;;;;;;;5005022;28;20219;-72
2021/09/02 00:30:46;;;;;;;9.33;7.40;;;;;;;;;;5005799;28;20267;-72
2021/09/02 00:33:15;;;;;;;8.97;6.87;;;;;;;;;;5004532;28;20266;-72
2021/09/02 00:35:41;;;;;;;10.27;6.93;;;;;;;;;;5007704;28;20219;-72
2021/09/02 00:38:09;;;;;;;8.00;6.60;;;;;;;;;;5008010;28;20621;-73
2021/09/02 00:40:36;;;;;;;7.50;6.73;;;;;;;;;;5004003;28;20227;-72
2021/09/02 00:43:03;;;;;;;8.87;6.83;;;;;;;;;;5007954;28;20271;-72
2021/09/02 00:45:29;;;;;;;9.87;6.83;;;;;;;;;;5009340;28;20221;-73
2021/09/02 00:47:56;;;;;;;7.93;6.80;;;;;;;;;;5007034;28;20269;-72
2021/09/02 00:50:22;;;;;;;9.93;6.70;;;;;;;;;;5007479;28;20291;-72
2021/09/02 00:52:49;;;;;;;8.50;6.30;;;;;;;;;;5005548;28;20243;-72
2021/09/02 00:55:16;;;;;;;9.00;6.33;;;;;;;;;;5008665;28;20803;-73
2021/09/02 00:57:43;;;;;;;9.87;6.00;;;;;;;;;;5009702;28;20264;-73
2021/09/02 01:00:12;;;;;;;8.13;6.13;;;;;;;;;;5011063;28;20219;-73
2021/09/02 01:02:41;;;;;;;7.90;6.67;;;;;;;;;;5009757;28;20217;-72
2021/09/02 01:05:08;;;;;;;7.47;6.23;;;;;;;;;;5012589;28;20218;-72
2021/09/02 01:07:35;;;;;;;7.17;6.43;;;;;;;;;;5011044;28;20357;-72
2021/09/02 01:10:05;;;;;;;7.53;6.50;;;;;;;;;;5010035;28;20288;-72
2021/09/02 01:12:35;;;;;;;9.73;6.37;;;;;;;;;;5011341;28;20297;-72
2021/09/02 01:15:03;;;;;;;8.80;6.13;;;;;;;;;;5011186;28;20233;-72
2021/09/02 01:17:30;;;;;;;9.13;6.93;;;;;;;;;;5011594;28;20288;-73
2021/09/02 01:19:57;;;;;;;9.70;6.97;;;;;;;;;;5013476;28;20222;-72
2021/09/02 01:22:26;;;;;;;9.23;7.30;;;;;;;;;;5010640;28;20218;-72
2021/09/02 01:24:54;;;;;;;10.30;7.20;;;;;;;;;;5011253;28;20266;-72
2021/09/02 01:27:20;;;;;;;7.93;7.07;;;;;;;;;;5010783;28;20276;-73
2021/09/02 01:29:51;;;;;;;10.30;7.40;;;;;;;;;;5010815;28;20311;-73
2021/09/02 01:32:18;;;;;;;14.07;7.17;;;;;;;;;;5007850;28;20216;-72
2021/09/02 01:34:44;;;;;;;9.10;7.30;;;;;;;;;;5009871;28;20619;-72
2021/09/02 01:37:10;;;;;;;10.90;6.90;;;;;;;;;;5012536;28;20217;-72
2021/09/02 01:39:37;;;;;;;8.37;6.63;;;;;;;;;;5010441;28;20266;-72
2021/09/02 01:42:05;;;;;;;8.43;6.53;;;;;;;;;;5009771;28;20216;-72
2021/09/02 01:44:32;;;;;;;9.13;7.03;;;;;;;;;;5011109;28;20217;-72
2021/09/02 01:46:58;;;;;;;9.70;7.87;;;;;;;;;;5011648;28;20837;-73
2021/09/02 01:49:25;;;;;;;9.33;6.97;;;;;;;;;;5012294;28;20628;-73
2021/09/02 01:51:51;;;;;;;9.97;6.80;;;;;;;;;;5007333;28;20220;-73
2021/09/02 01:54:17;;;;;;;11.70;7.97;;;;;;;;;;5010414;28;20228;-72
2021/09/02 01:56:44;;;;;;;10.87;7.27;;;;;;;;;;5010369;28;20211;-72
2021/09/02 01:59:11;;;;;;;8.97;6.73;;;;;;;;;;5012576;28;20273;-72
2021/09/02 02:01:38;;;;;;;11.00;6.80;;;;;;;;;;5010251;28;20247;-72
2021/09/02 02:04:04;;;;;;;10.43;6.57;;;;;;;;;;5009944;28;20244;-72
2021/09/02 02:06:31;;;;;;;11.03;7.20;;;;;;;;;;5010638;28;20228;-72
2021/09/02 02:08:57;;;;;;;11.43;6.93;;;;;;;;;;5010721;28;20301;-72
2021/09/02 02:11:23;;;;;;;9.93;7.60;;;;;;;;;;5008321;28;20262;-72
2021/09/02 02:13:50;;;;;;;12.73;7.87;;;;;;;;;;5010739;28;20236;-72
2021/09/02 02:16:18;;;;;;;12.33;7.40;;;;;;;;;;5009116;28;20617;-72
2021/09/02 02:18:44;;;;;;;11.77;7.60;;;;;;;;;;5008744;28;20213;-72
2021/09/02 02:21:10;;;;;;;10.90;7.60;;;;;;;;;;5011601;28;20255;-72
2021/09/02 02:23:37;;;;;;;10.47;7.43;;;;;;;;;;5009768;28;20237;-72
2021/09/02 02:26:03;;;;;;;11.10;7.97;;;;;;;;;;5011705;28;20221;-72
2021/09/02 02:28:29;;;;;;;9.47;5.90;;;;;;;;;;5008630;28;20263;-72
2021/09/02 02:30:56;;;;;;;7.87;6.73;;;;;;;;;;5008654;28;20236;-72
2021/09/02 02:33:23;;;;;;;9.47;6.57;;;;;;;;;;5008863;28;21171;-72
2021/09/02 02:35:50;;;;;;;10.07;6.53;;;;;;;;;;5008452;28;20219;-72
2021/09/02 02:38:16;;;;;;;9.70;6.90;;;;;;;;;;5008589;28;20237;-72
2021/09/02 02:40:42;;;;;;;9.53;6.70;;;;;;;;;;5007350;28;20223;-72
2021/09/02 02:43:09;;;;;;;8.53;6.50;;;;;;;;;;5008737;28;20717;-72
2021/09/02 02:45:35;;;;;;;8.10;5.87;;;;;;;;;;5011204;28;20590;-72
2021/09/02 02:48:01;;;;;;;8.93;6.53;;;;;;;;;;5007744;28;20640;-73
2021/09/02 02:50:29;;;;;;;8.67;6.80;;;;;;;;;;5009264;28;20659;-72
2021/09/02 02:52:56;;;;;;;9.53;6.87;;;;;;;;;;5007246;28;20214;-72
2021/09/02 02:55:22;;;;;;;8.37;6.63;;;;;;;;;;5011285;28;20218;-72
2021/09/02 02:57:49;;;;;;;11.43;6.40;;;;;;;;;;5011064;28;20717;-73
2021/09/02 03:00:16;;;;;;;7.47;6.20;;;;;;;;;;5007326;28;20215;-72
2021/09/02 03:02:42;;;;;;;11.63;6.50;;;;;;;;;;5008236;28;20226;-72
2021/09/02 03:05:09;;;;;;;8.37;6.63;;;;;;;;;;5008192;28;20701;-72
2021/09/02 03:07:37;;;;;;;9.60;6.37;;;;;;;;;;5008300;28;20272;-72
2021/09/02 03:10:03;;;;;;;9.83;6.07;;;;;;;;;;5007398;28;20253;-72
2021/09/02 03:12:30;;;;;;;8.00;6.17;;;;;;;;;;5010149;28;20454;-72
2021/09/02 03:14:56;;;;;;;7.50;6.80;;;;;;;;;;5010668;28;20231;-72
2021/09/02 03:17:23;;;;;;;10.20;6.40;;;;;;;;;;5008572;28;21085;-72
2021/09/02 03:19:49;;;;;;;11.47;6.47;;;;;;;;;;5007486;28;20249;-72
2021/09/02 03:22:16;;;;;;;9.57;7.03;;;;;;;;;;5008348;28;20219;-73
2021/09/02 03:24:43;;;;;;;10.53;7.13;;;;;;;;;;5008147;28;20706;-73
2021/09/02 03:27:10;;;;;;;12.17;6.63;;;;;;;;;;5008323;28;20217;-72
2021/09/02 03:29:36;;;;;;;9.60;7.03;;;;;;;;;;5005663;28;20240;-73
2021/09/02 03:32:03;;;;;;;8.93;6.63;;;;;;;;;;5011831;28;20219;-73
2021/09/02 03:34:29;;;;;;;9.77;6.47;;;;;;;;;;5010182;28;20662;-73
2021/09/02 03:36:55;;;;;;;7.90;5.97;;;;;;;;;;5008493;28;20215;-73
2021/09/02 03:39:22;;;;;;;9.83;6.40;;;;;;;;;;5010685;28;20697;-73
2021/09/02 03:41:49;;;;;;;10.33;6.47;;;;;;;;;;5010179;28;20216;-72
2021/09/02 03:44:16;;;;;;;11.30;6.77;;;;;;;;;;5010164;28;20268;-72
2021/09/02 03:46:42;;;;;;;13.87;6.87;;;;;;;;;;5005664;28;20222;-72
2021/09/02 03:49:09;;;;;;;9.80;6.83;;;;;;;;;;5007611;28;20549;-72
2021/09/02 03:51:35;;;;;;;7.87;6.13;;;;;;;;;;5008306;28;20240;-73
2021/09/02 03:54:02;;;;;;;10.63;6.67;;;;;;;;;;5006736;28;20229;-72
2021/09/02 03:56:28;;;;;;;7.67;6.30;;;;;;;;;;5007538;28;20218;-72
2021/09/02 03:58:56;;;;;;;8.50;6.00;;;;;;;;;;5007915;28;20871;-72
2021/09/02 04:01:25;;;;;;;8.43;5.80;;;;;;;;;;5007493;28;20246;-72
2021/09/02 04:03:51;;;;;;;9.20;6.17;;;;;;;;;;5007773;28;20666;-72
2021/09/02 04:06:18;;;;;;;8.87;6.07;;;;;;;;;;5009048;28;20213;-72
2021/09/02 04:08:44;;;;;;;8.50;5.83;;;;;;;;;;5008702;28;20230;-72
2021/09/02 04:11:11;;;;;;;10.20;6.63;;;;;;;;;;5006722;28;20238;-73
2021/09/02 04:13:37;;;;;;;8.33;5.90;;;;;;;;;;5006230;28;20237;-72
2021/09/02 04:16:05;;;;;;;8.57;5.73;;;;;;;;;;5006190;28;20247;-73
2021/09/02 04:18:31;;;;;;;9.07;5.60;;;;;;;;;;5007291;28;20209;-72
2021/09/02 04:20:58;;;;;;;8.97;6.33;;;;;;;;;;5007342;28;20218;-73
2021/09/02 04:23:25;;;;;;;8.40;6.80;;;;;;;;;;5006403;28;20239;-72
2021/09/02 04:25:51;;;;;;;10.37;6.00;;;;;;;;;;5005302;28;20717;-72
2021/09/02 04:28:18;;;;;;;11.20;6.70;;;;;;;;;;5006450;28;20269;-72
2021/09/02 04:30:44;;;;;;;10.00;6.40;;;;;;;;;;5010861;28;20519;-72
2021/09/02 04:33:12;;;;;;;10.23;5.90;;;;;;;;;;5011408;28;20693;-72
2021/09/02 04:35:38;;;;;;;9.63;5.93;;;;;;;;;;5012505;28;20606;-72
2021/09/02 04:38:04;;;;;;;9.97;5.23;;;;;;;;;;5012806;28;20809;-72
2021/09/02 04:40:31;;;;;;;7.47;5.03;;;;;;;;;;5011027;28;20217;-72
2021/09/02 04:42:57;;;;;;;9.87;6.03;;;;;;;;;;5011050;28;20216;-72
2021/09/02 04:45:23;;;;;;;7.83;5.13;;;;;;;;;;5008309;28;20218;-72
2021/09/02 04:47:50;;;;;;;8.97;5.53;;;;;;;;;;5010680;28;20222;-72
2021/09/02 04:50:19;;;;;;;8.87;5.17;;;;;;;;;;5010678;28;20672;-72
2021/09/02 04:52:46;;;;;;;8.33;4.80;;;;;;;;;;5008580;28;20221;-72
2021/09/02 04:55:13;;;;;;;9.67;5.10;;;;;;;;;;5009736;28;20279;-71
2021/09/02 04:57:40;;;;;;;8.07;5.60;;;;;;;;;;5007478;28;20216;-72
2021/09/02 05:00:08;;;;;;;9.17;5.10;;;;;;;;;;5009732;28;20577;-72
2021/09/02 05:02:35;;;;;;;8.73;5.17;;;;;;;;;;5008226;28;20251;-72
2021/09/02 05:05:02;;;;;;;7.10;5.90;;;;;;;;;;5008697;28;20665;-72
2021/09/02 05:07:29;;;;;;;8.70;5.20;;;;;;;;;;5010882;28;20666;-72
2021/09/02 05:09:56;;;;;;;8.73;6.00;;;;;;;;;;5012669;28;20230;-72
2021/09/02 05:12:22;;;;;;;7.50;5.30;;;;;;;;;;5010417;28;20218;-72
2021/09/02 05:14:49;;;;;;;11.07;6.27;;;;;;;;;;5007736;28;20800;-72
2021/09/02 05:17:15;;;;;;;8.10;5.47;;;;;;;;;;5010889;28;20218;-72
2021/09/02 05:19:41;;;;;;;10.87;6.07;;;;;;;;;;5008900;28;20226;-72
2021/09/02 05:22:08;;;;;;;10.73;6.23;;;;;;;;;;5009208;28;20771;-72
2021/09/02 05:24:35;;;;;;;12.13;6.67;;;;;;;;;;5007716;28;20283;-74
2021/09/02 05:27:02;;;;;;;13.47;6.53;;;;;;;;;;5009395;28;20212;-72
2021/09/02 05:29:28;;;;;;;12.63;6.97;;;;;;;;;;5006318;28;20667;-73
2021/09/02 05:31:55;;;;;;;9.57;6.10;;;;;;;;;;5007473;28;20239;-72
2021/09/02 05:34:21;;;;;;;8.20;6.10;;;;;;;;;;5011485;28;20218;-72
2021/09/02 05:36:47;;;;;;;9.27;6.10;;;;;;;;;;5007860;28;20744;-72
2021/09/02 05:39:14;;;;;;;8.80;5.67;;;;;;;;;;5010764;28;20233;-72
2021/09/02 05:41:42;;;;;;;12.37;6.30;;;;;;;;;;5008115;28;20211;-72
2021/09/02 05:44:11;;;;;;;11.10;5.47;;;;;;;;;;5005910;28;20217;-72
2021/09/02 05:46:38;;;;;;;8.67;6.13;;;;;;;;;;5009030;28;20738;-72
2021/09/02 05:49:04;;;;;;;12.30;6.13;;;;;;;;;;5010064;28;20380;-74
2021/09/02 05:51:31;;;;;;;14.60;6.67;;;;;;;;;;5008997;28;20239;-74
2021/09/02 05:53:57;;;;;;;21.17;7.60;;;;;;;;;;5010208;28;20262;-74
2021/09/02 05:56:24;;;;;;;20.73;7.47;;;;;;;;;;5009096;28;20223;-74
2021/09/02 05:58:51;;;;;;;19.27;7.27;;;;;;;;;;5005887;28;20235;-74
2021/09/02 06:01:18;;;;;;;20.40;6.80;;;;;;;;;;5007973;28;20293;-74
2021/09/02 06:03:44;;;;;;;30.17;8.47;;;;;;;;;;5007272;28;20714;-74
2021/09/02 06:06:11;;;;;;;24.97;6.93;;;;;;;;;;5005993;28;20217;-74
2021/09/02 06:08:38;;;;;;;21.27;7.33;;;;;;;;;;5009121;28;20302;-74
2021/09/02 06:11:05;;;;;;;25.40;8.07;;;;;;;;;;5008566;28;20597;-74
2021/09/02 06:13:31;;;;;;;23.50;7.90;;;;;;;;;;5005679;28;20217;-74
2021/09/02 06:16:00;;;;;;;15.43;6.73;;;;;;;;;;5008916;28;20626;-74
2021/09/02 06:18:26;;;;;;;37.53;8.80;;;;;;;;;;5008360;28;20218;-74
2021/09/02 06:20:53;;;;;;;40.00;9.40;;;;;;;;;;5007981;28;20330;-74
2021/09/02 06:23:19;;;;;;;46.33;8.67;;;;;;;;;;5007645;28;20235;-74
2021/09/02 06:25:46;;;;;;;31.60;7.90;;;;;;;;;;5007335;28;20247;-74
2021/09/02 06:28:12;;;;;;;21.83;7.17;;;;;;;;;;5009308;28;20619;-74
2021/09/02 06:30:39;;;;;;;17.97;7.60;;;;;;;;;;5010868;28;20281;-74
2021/09/02 06:33:06;;;;;;;22.87;7.43;;;;;;;;;;5009983;28;20615;-74
2021/09/02 06:35:33;;;;;;;28.60;7.87;;;;;;;;;;5008255;28;20285;-74
2021/09/02 06:38:00;;;;;;;19.33;7.70;;;;;;;;;;5007272;28;20757;-74
2021/09/02 06:40:26;;;;;;;14.87;7.47;;;;;;;;;;5005664;28;20284;-74
2021/09/02 06:42:52;;;;;;;20.13;7.57;;;;;;;;;;5008121;28;20224;-74
2021/09/02 06:45:19;;;;;;;14.23;7.90;;;;;;;;;;5006862;28;20274;-74
2021/09/02 06:47:45;;;;;;;13.83;7.30;;;;;;;;;;5008158;28;20218;-74
2021/09/02 06:50:14;;;;;;;10.23;7.67;;;;;;;;;;5007468;28;20607;-74
2021/09/02 06:52:42;;;;;;;11.73;7.47;;;;;;;;;;5008133;28;20637;-74
2021/09/02 06:55:09;;;;;;;16.70;8.07;;;;;;;;;;5009170;28;20281;-74
2021/09/02 06:57:36;;;;;;;17.10;9.03;;;;;;;;;;5008534;28;20216;-74
2021/09/02 07:00:04;;;;;;;15.30;7.47;;;;;;;;;;5008404;28;20651;-74
2021/09/02 07:02:31;;;;;;;24.57;9.93;;;;;;;;;;5008359;28;20247;-73
2021/09/02 07:04:57;;;;;;;13.00;8.80;;;;;;;;;;5007163;28;20216;-73
2021/09/02 07:07:25;;;;;;;15.90;8.33;;;;;;;;;;5008484;28;20253;-73
2021/09/02 07:09:52;;;;;;;16.90;8.30;;;;;;;;;;5007376;28;20289;-73
2021/09/02 07:12:18;;;;;;;14.53;7.73;;;;;;;;;;5005260;28;20563;-73
2021/09/02 07:14:44;;;;;;;12.97;7.50;;;;;;;;;;5007471;28;20278;-73
2021/09/02 07:17:11;;;;;;;11.10;7.97;;;;;;;;;;5007242;28;20219;-73
2021/09/02 07:19:37;;;;;;;12.17;7.47;;;;;;;;;;5012551;28;20746;-73
2021/09/02 07:22:04;;;;;;;12.13;7.60;;;;;;;;;;5008454;28;20218;-73
2021/09/02 07:24:31;;;;;;;14.60;7.90;;;;;;;;;;5009748;28;20686;-73
2021/09/02 07:26:58;;;;;;;18.53;7.87;;;;;;;;;;5007753;28;20215;-73
2021/09/02 07:29:24;;;;;;;11.80;7.90;;;;;;;;;;5008548;28;20524;-73
2021/09/02 07:31:51;;;;;;;12.20;8.17;;;;;;;;;;5007391;28;20247;-73
2021/09/02 07:34:17;;;;;;;17.13;8.87;;;;;;;;;;5010811;28;20579;-73
2021/09/02 07:36:44;;;;;;;19.17;10.80;;;;;;;;;;5009269;28;20224;-73
2021/09/02 07:39:11;;;;;;;22.03;11.40;;;;;;;;;;5008408;28;20806;-73
2021/09/02 07:41:39;;;;;;;23.37;13.17;;;;;;;;;;5008206;28;20259;-73
2021/09/02 07:44:05;;;;;;;22.33;12.70;;;;;;;;;;5004691;28;20273;-73
2021/09/02 07:46:31;;;;;;;22.33;12.83;;;;;;;;;;5007327;28;20219;-73
2021/09/02 07:48:58;;;;;;;17.93;12.73;;;;;;;;;;5009087;28;20222;-73
2021/09/02 07:51:24;;;;;;;21.43;13.50;;;;;;;;;;5007785;28;20643;-73
2021/09/02 07:53:51;;;;;;;17.40;13.43;;;;;;;;;;5006779;28;20235;-73
2021/09/02 07:56:18;;;;;;;21.23;13.60;;;;;;;;;;5007531;28;20208;-73
2021/09/02 07:58:46;;;;;;;22.47;13.90;;;;;;;;;;5007101;28;20229;-73
2021/09/02 08:01:13;;;;;;;23.13;13.97;;;;;;;;;;5005967;28;20783;-73
2021/09/02 08:03:40;;;;;;;24.93;13.97;;;;;;;;;;5003743;28;20225;-73
2021/09/02 08:06:08;;;;;;;22.93;13.47;;;;;;;;;;5007790;28;20223;-73
2021/09/02 08:08:35;;;;;;;18.40;13.17;;;;;;;;;;5008931;28;20240;-73
2021/09/02 08:11:02;;;;;;;20.73;12.63;;;;;;;;;;5003904;28;20244;-73
2021/09/02 08:13:28;;;;;;;22.53;13.80;;;;;;;;;;5006306;28;20765;-73
2021/09/02 08:15:56;;;;;;;20.10;13.07;;;;;;;;;;5007765;28;20236;-73
2021/09/02 08:18:22;;;;;;;18.17;12.60;;;;;;;;;;5004941;28;20270;-73
2021/09/02 08:20:49;;;;;;;22.33;13.17;;;;;;;;;;5008418;28;20220;-73
2021/09/02 08:23:15;;;;;;;22.50;13.90;;;;;;;;;;5008415;28;20224;-73
2021/09/02 08:25:41;;;;;;;20.10;14.00;;;;;;;;;;5006557;28;20226;-73
2021/09/02 08:28:09;;;;;;;19.17;12.63;;;;;;;;;;5007285;28;20226;-73
2021/09/02 08:30:35;;;;;;;23.33;13.00;;;;;;;;;;5005722;28;20584;-73
2021/09/02 08:33:03;;;;;;;25.23;13.20;;;;;;;;;;5005213;28;20233;-73
2021/09/02 08:35:33;;;;;;;25.83;13.67;;;;;;;;;;5004754;28;20207;-73
2021/09/02 08:38:05;;;;;;;22.63;14.13;;;;;;;;;;5005765;28;20667;-73
2021/09/02 08:40:34;;;;;;;22.43;12.70;;;;;;;;;;5005165;28;20217;-72
2021/09/02 08:43:01;;;;;;;24.50;12.17;;;;;;;;;;5004399;28;20219;-73
2021/09/02 08:45:29;;;;;;;18.60;11.70;;;;;;;;;;5006607;28;20223;-73
2021/09/02 08:47:56;;;;;;;20.23;11.80;;;;;;;;;;5004202;28;20216;-73
2021/09/02 08:50:27;;;;;;;22.23;12.63;;;;;;;;;;5004480;28;20218;-73
2021/09/02 08:52:55;;;;;;;18.23;12.10;;;;;;;;;;5004604;28;20252;-73
2021/09/02 08:55:23;;;;;;;23.40;13.17;;;;;;;;;;5005779;28;20219;-73
2021/09/02 08:57:51;;;;;;;19.07;11.90;;;;;;;;;;5005623;28;20215;-73
2021/09/02 09:00:19;;;;;;;22.67;12.60;;;;;;;;;;5004968;28;20208;-73
2021/09/02 09:02:47;;;;;;;25.43;13.63;;;;;;;;;;5005071;28;20377;-73
2021/09/02 09:05:15;;;;;;;23.47;13.70;;;;;;;;;;5004607;28;20890;-73
2021/09/02 09:07:45;;;;;;;20.13;12.27;;;;;;;;;;5005478;28;20215;-73
2021/09/02 09:10:16;;;;;;;20.23;12.30;;;;;;;;;;5006008;28;20269;-73
2021/09/02 09:12:44;;;;;;;23.10;13.20;;;;;;;;;;5001972;28;20327;-73
2021/09/02 09:15:16;;;;;;;21.03;12.63;;;;;;;;;;5005802;28;20618;-73
2021/09/02 09:17:43;;;;;;;18.40;12.20;;;;;;;;;;5011945;28;20207;-73
2021/09/02 09:20:11;;;;;;;22.20;13.00;;;;;;;;;;5008871;28;20216;-73
2021/09/02 09:22:37;;;;;;;24.03;12.83;;;;;;;;;;5012394;28;20209;-73
2021/09/02 09:25:06;;;;;;;18.60;12.20;;;;;;;;;;5010186;28;20286;-73
2021/09/02 09:27:37;;;;;;;17.33;11.97;;;;;;;;;;5011413;28;20215;-73
2021/09/02 09:30:12;;;;;;;38.17;14.87;;;;;;;;;;5013441;28;20208;-73
2021/09/02 09:32:41;;;;;;;70.23;18.77;;;;;;;;;;5009211;28;20261;-73
2021/09/02 09:35:10;;;;;;;19.13;11.87;;;;;;;;;;5010017;28;20330;-73
2021/09/02 09:37:37;;;;;;;17.07;11.23;;;;;;;;;;5007055;28;20219;-73
2021/09/02 09:40:17;;;;;;;31.40;13.00;;;;;;;;;;5009533;28;20310;-73
2021/09/02 09:43:05;;;;;;;20.23;12.33;;;;;;;;;;5011910;28;20251;-73
2021/09/02 09:45:40;;;;;;;20.13;12.00;;;;;;;;;;5010788;28;20249;-73
2021/09/02 09:48:31;;;;;;;17.70;11.77;;;;;;;;;;5009138;28;20215;-73
2021/09/02 09:51:09;;;;;;;17.60;11.47;;;;;;;;;;5004262;28;20941;-73
2021/09/02 09:53:36;;;;;;;23.33;12.57;;;;;;;;;;5008711;28;20699;-73
2021/09/02 09:56:05;;;;;;;23.60;11.93;;;;;;;;;;5010410;28;20219;-73
2021/09/02 09:58:32;;;;;;;15.93;11.63;;;;;;;;;;5009233;28;20226;-73
2021/09/02 10:01:00;;;;;;;20.73;11.60;;;;;;;;;;5010321;28;20240;-73
2021/09/02 10:03:28;;;;;;;18.50;12.33;;;;;;;;;;5008051;28;20267;-73
2021/09/02 10:06:00;;;;;;;20.27;11.80;;;;;;;;;;5007814;28;20216;-73
2021/09/02 10:08:27;;;;;;;18.30;10.80;;;;;;;;;;5010309;28;20682;-73
2021/09/02 10:10:53;;;;;;;18.63;11.07;;;;;;;;;;5010301;28;20216;-73
2021/09/02 10:13:22;;;;;;;17.47;11.50;;;;;;;;;;5007933;28;20627;-73
2021/09/02 10:15:48;;;;;;;19.87;12.30;;;;;;;;;;5007110;28;20235;-73
2021/09/02 10:18:15;;;;;;;19.97;11.93;;;;;;;;;;5006457;28;20223;-73
2021/09/02 10:20:42;;;;;;;18.73;11.93;;;;;;;;;;5011552;28;20360;-73
2021/09/02 10:23:09;;;;;;;18.30;11.03;;;;;;;;;;5007826;28;20278;-73
2021/09/02 10:25:38;;;;;;;22.40;12.10;;;;;;;;;;5009838;28;20975;-73
2021/09/02 10:28:07;;;;;;;20.07;11.73;;;;;;;;;;5008401;28;20334;-73
2021/09/02 10:30:41;;;;;;;18.10;11.53;;;;;;;;;;5007833;28;20221;-73
2021/09/02 10:33:38;;;;;;;18.43;12.53;;;;;;;;;;5008055;28;20625;-73
2021/09/02 10:36:49;;;;;;;20.97;12.67;;;;;;;;;;5008330;28;20799;-73
2021/09/02 10:39:40;;;;;;;20.13;12.27;;;;;;;;;;4983288;28;20233;-73
2021/09/02 10:42:07;;;;;;;17.50;11.17;;;;;;;;;;5006179;28;20833;-73
2021/09/02 10:44:49;;;;;;;24.37;11.97;;;;;;;;;;5007276;28;20219;-73
2021/09/02 10:47:18;;;;;;;20.13;11.47;;;;;;;;;;5008711;28;20802;-73
2021/09/02 10:50:00;;;;;;;19.43;11.83;;;;;;;;;;5008634;28;20907;-73
2021/09/02 10:52:28;;;;;;;19.43;11.70;;;;;;;;;;5009318;28;20291;-73
2021/09/02 10:54:55;;;;;;;23.17;11.87;;;;;;;;;;5008064;28;20232;-73
2021/09/02 10:57:22;;;;;;;19.27;12.13;;;;;;;;;;5007218;28;20219;-73
2021/09/02 10:59:50;;;;;;;24.17;13.10;;;;;;;;;;5006250;28;20216;-73
2021/09/02 11:02:43;;;;;;;20.13;12.67;;;;;;;;;;5005846;28;20335;-73
2021/09/02 11:05:11;;;;;;;16.97;12.43;;;;;;;;;;5006815;28;20279;-73
2021/09/02 11:07:43;;;;;;;20.77;13.27;;;;;;;;;;5007742;28;20349;-73
2021/09/02 11:10:12;;;;;;;19.77;11.97;;;;;;;;;;5008232;28;20760;-73
2021/09/02 11:12:39;;;;;;;17.57;12.47;;;;;;;;;;5008169;28;20235;-73
2021/09/02 11:15:07;;;;;;;18.90;12.63;;;;;;;;;;5010488;28;20602;-73
2021/09/02 11:17:33;;;;;;;22.07;13.20;;;;;;;;;;5007092;28;20213;-73
2021/09/02 11:20:01;;;;;;;20.87;13.07;;;;;;;;;;5007563;28;20248;-73
2021/09/02 11:22:27;;;;;;;19.90;11.53;;;;;;;;;;5006990;28;20216;-73
2021/09/02 11:24:54;;;;;;;21.30;12.53;;;;;;;;;;5007612;28;20286;-73
2021/09/02 11:27:30;;;;;;;18.97;12.17;;;;;;;;;;5011134;28;20221;-73
2021/09/02 11:30:16;;;;;;;19.10;12.73;;;;;;;;;;5005871;28;20313;-73
2021/09/02 11:32:43;;;;;;;15.13;12.20;;;;;;;;;;5007001;28;20290;-73
2021/09/02 11:35:12;;;;;;;19.27;12.23;;;;;;;;;;5005236;28;20217;-72
2021/09/02 11:37:40;;;;;;;20.13;11.20;;;;;;;;;;5006536;28;20219;-73
2021/09/02 11:40:09;;;;;;;19.13;11.70;;;;;;;;;;5007071;28;20237;-73
2021/09/02 11:42:36;;;;;;;18.80;11.73;;;;;;;;;;5009902;28;20226;-73
2021/09/02 11:45:03;;;;;;;16.10;11.00;;;;;;;;;;5006102;28;20237;-73
2021/09/02 11:47:35;;;;;;;18.03;10.53;;;;;;;;;;5007109;28;20220;-73
2021/09/02 11:50:01;;;;;;;19.80;11.97;;;;;;;;;;5006561;28;20264;-73
2021/09/02 11:52:39;;;;;;;20.23;12.07;;;;;;;;;;5007327;28;20239;-73
2021/09/02 11:55:07;;;;;;;15.83;11.80;;;;;;;;;;5007637;28;20237;-73
2021/09/02 11:57:33;;;;;;;17.77;13.03;;;;;;;;;;5006668;28;20219;-73
2021/09/02 12:00:00;;;;;;;16.87;11.70;;;;;;;;;;5008546;28;20223;-73
2021/09/02 12:02:26;;;;;;;13.97;10.87;;;;;;;;;;5009049;28;20245;-73
2021/09/02 12:04:54;;;;;;;17.73;12.27;;;;;;;;;;5004334;28;20214;-73
2021/09/02 12:07:20;;;;;;;16.93;11.37;;;;;;;;;;5005293;28;20288;-73
2021/09/02 12:09:50;;;;;;;18.63;10.93;;;;;;;;;;5005476;28;20717;-73
2021/09/02 12:12:27;;;;;;;16.47;11.17;;;;;;;;;;5002891;28;20234;-73
2021/09/02 12:14:54;;;;;;;17.53;11.50;;;;;;;;;;5006312;28;20239;-73
2021/09/02 12:17:20;;;;;;;20.90;11.93;;;;;;;;;;5009589;28;20217;-73
2021/09/02 12:19:52;;;;;;;18.33;11.57;;;;;;;;;;5008635;28;20277;-73
2021/09/02 12:22:19;;;;;;;19.50;11.90;;;;;;;;;;5006732;28;20297;-73
2021/09/02 12:24:45;;;;;;;22.63;13.20;;;;;;;;;;5005031;28;20236;-73
2021/09/02 12:27:13;;;;;;;20.03;12.27;;;;;;;;;;5005678;28;20221;-73
2021/09/02 12:29:47;;;;;;;19.67;12.87;;;;;;;;;;5005997;28;20209;-73
2021/09/02 12:32:16;;;;;;;17.97;12.00;;;;;;;;;;5006088;28;20250;-73
2021/09/02 12:34:43;;;;;;;15.77;10.20;;;;;;;;;;5007467;28;20393;-73
2021/09/02 12:37:11;;;;;;;17.17;11.37;;;;;;;;;;5004352;28;20226;-73
2021/09/02 12:39:47;;;;;;;17.30;11.60;;;;;;;;;;5009270;28;20291;-73
2021/09/02 12:42:21;;;;;;;16.00;10.90;;;;;;;;;;5008831;28;20213;-73
2021/09/02 12:45:03;;;;;;;18.30;11.43;;;;;;;;;;5005042;28;20209;-73
2021/09/02 12:47:30;;;;;;;17.17;10.83;;;;;;;;;;5005431;28;20590;-73
2021/09/02 12:49:56;;;;;;;17.80;10.87;;;;;;;;;;5005973;28;20300;-73
2021/09/02 12:52:25;;;;;;;17.67;10.77;;;;;;;;;;5006313;28;20222;-73
2021/09/02 12:55:00;;;;;;;16.57;11.73;;;;;;;;;;5008284;28;20227;-73
2021/09/02 12:57:28;;;;;;;15.53;10.17;;;;;;;;;;5010975;28;20317;-73
2021/09/02 12:59:55;;;;;;;16.43;10.60;;;;;;;;;;5008116;28;20212;-73
2021/09/02 13:02:21;;;;;;;16.60;10.20;;;;;;;;;;5009673;28;20264;-73
2021/09/02 13:04:47;;;;;;;14.87;11.07;;;;;;;;;;5006414;28;20225;-73
2021/09/02 13:07:14;;;;;;;14.30;10.57;;;;;;;;;;5009548;28;20237;-73
2021/09/02 13:09:40;;;;;;;15.83;11.10;;;;;;;;;;5009430;28;20626;-73
2021/09/02 13:12:07;;;;;;;17.03;11.40;;;;;;;;;;5010138;28;20222;-73
2021/09/02 13:14:35;;;;;;;17.03;11.83;;;;;;;;;;5009124;28;20246;-73
2021/09/02 13:17:02;;;;;;;18.13;10.73;;;;;;;;;;5009434;28;20265;-73
2021/09/02 13:19:28;;;;;;;17.60;11.17;;;;;;;;;;5009863;28;20585;-73
2021/09/02 13:21:55;;;;;;;22.77;12.67;;;;;;;;;;5010714;28;20612;-73
2021/09/02 13:24:21;;;;;;;17.40;11.37;;;;;;;;;;5010078;28;20231;-73
2021/09/02 13:26:48;;;;;;;18.43;11.23;;;;;;;;;;5008836;28;20220;-73
2021/09/02 13:29:14;;;;;;;18.20;11.20;;;;;;;;;;5009709;28;20279;-73
2021/09/02 13:31:42;;;;;;;17.27;11.43;;;;;;;;;;5008386;28;20218;-73
2021/09/02 13:34:08;;;;;;;19.40;11.17;;;;;;;;;;5010818;28;20313;-73
2021/09/02 13:36:34;;;;;;;18.83;11.20;;;;;;;;;;5008102;28;20217;-73
2021/09/02 13:39:01;;;;;;;16.23;10.37;;;;;;;;;;5009301;28;20844;-73
2021/09/02 13:41:27;;;;;;;13.27;10.10;;;;;;;;;;5009004;28;20301;-73
2021/09/02 13:43:54;;;;;;;15.73;9.53;;;;;;;;;;5008341;28;20219;-73
2021/09/02 13:46:20;;;;;;;14.13;9.27;;;;;;;;;;5009526;28;20223;-73
2021/09/02 13:48:48;;;;;;;15.30;9.67;;;;;;;;;;5008170;28;20228;-73
2021/09/02 13:51:15;;;;;;;18.53;10.10;;;;;;;;;;5009999;28;20219;-73
2021/09/02 13:53:41;;;;;;;13.47;9.47;;;;;;;;;;5008508;28;20312;-74
2021/09/02 13:56:08;;;;;;;15.17;10.07;;;;;;;;;;5011499;28;20310;-73
2021/09/02 13:58:34;;;;;;;16.57;10.13;;;;;;;;;;5010828;28;20273;-73
2021/09/02 14:01:01;;;;;;;13.30;9.57;;;;;;;;;;5004593;28;20321;-73
2021/09/02 14:03:27;;;;;;;12.03;9.50;;;;;;;;;;5007947;28;20511;-73
2021/09/02 14:05:55;;;;;;;17.73;10.27;;;;;;;;;;5008485;28;20293;-73
2021/09/02 14:08:21;;;;;;;17.83;10.50;;;;;;;;;;5010392;28;20225;-73
2021/09/02 14:10:48;;;;;;;15.93;9.33;;;;;;;;;;5010243;28;20217;-73
2021/09/02 14:13:14;;;;;;;17.13;9.77;;;;;;;;;;5006775;28;20894;-73
2021/09/02 14:15:41;;;;;;;13.67;9.83;;;;;;;;;;5006889;28;20803;-73
2021/09/02 14:18:10;;;;;;;14.77;9.77;;;;;;;;;;5008847;28;20666;-73
2021/09/02 14:20:36;;;;;;;15.47;9.43;;;;;;;;;;5009496;28;20234;-73
2021/09/02 14:23:04;;;;;;;17.37;9.80;;;;;;;;;;5007136;28;20216;-73
2021/09/02 14:25:30;;;;;;;16.47;10.27;;;;;;;;;;5008012;28;20611;-74
2021/09/02 14:27:57;;;;;;;17.07;11.23;;;;;;;;;;5010577;28;20254;-73
2021/09/02 14:30:23;;;;;;;20.27;11.43;;;;;;;;;;5007419;28;21086;-73
2021/09/02 14:32:50;;;;;;;21.20;11.03;;;;;;;;;;5004949;28;20220;-73